createdAt,value
2019-06-07T07:34:20.898Z,0.70
2019-06-07T07:36:28.136Z,0.90
2019-06-07T07:38:35.574Z,0.80
2019-06-07T07:41:14.750Z,0.93
2019-06-07T07:43:35.217Z,1.00
2019-06-07T07:46:26.243Z,3.40
2019-06-07T07:48:34.670Z,0.90
2019-06-07T07:51:03.774Z,0.80
2019-06-07T07:53:48.577Z,1.00
2019-06-07T07:56:04.368Z,0.90
2019-06-07T07:58:33.814Z,0.88
2019-06-07T08:01:10.147Z,1.10
2019-06-07T08:06:02.050Z,0.88
2019-06-07T08:08:30.991Z,1.00
2019-06-07T08:13:48.125Z,0.98
2019-06-07T08:16:18.885Z,0.88
2019-06-07T08:18:51.054Z,0.95
2019-06-07T08:21:25.327Z,1.67
2019-06-07T08:23:51.594Z,1.10
2019-06-07T08:28:48.378Z,1.42
2019-06-07T08:31:18.435Z,1.10
2019-06-07T08:33:47.805Z,1.30
2019-06-07T08:36:22.047Z,1.50
2019-06-07T08:41:18.846Z,1.70
2019-06-07T08:43:56.453Z,2.92
2019-06-07T08:46:24.116Z,2.55
2019-06-07T08:48:55.660Z,1.70
2019-06-07T08:51:24.185Z,1.40
2019-06-07T08:54:20.564Z,1.22
2019-06-07T08:56:25.121Z,1.45
2019-06-07T08:59:00.634Z,1.30
2019-06-07T09:01:27.270Z,2.05
2019-06-07T09:04:02.625Z,1.72
2019-06-07T09:08:58.929Z,1.45
2019-06-07T09:11:27.338Z,1.98
2019-06-07T09:13:57.712Z,1.98
2019-06-07T09:16:26.808Z,2.20
2019-06-07T09:18:58.482Z,1.65
2019-06-07T09:21:26.798Z,1.47
2019-06-07T09:23:57.265Z,2.05
2019-06-07T09:28:56.191Z,2.10
2019-06-07T09:31:51.128Z,4.00
2019-06-07T09:34:18.114Z,2.35
2019-06-07T09:36:50.167Z,1.92
2019-06-07T09:39:20.085Z,2.00
2019-06-07T09:41:50.542Z,1.85
2019-06-07T09:44:25.822Z,5.95
2019-06-07T09:47:14.108Z,2.45
2019-06-07T09:49:31.536Z,2.65
2019-06-07T09:57:16.420Z,3.52
2019-06-07T09:59:43.632Z,2.70
2019-06-07T10:02:13.636Z,4.03
2019-06-07T10:04:43.115Z,2.75
2019-06-07T10:07:30.684Z,3.12
2019-06-07T10:10:11.644Z,3.62
2019-06-07T10:12:13.758Z,3.22
2019-06-07T10:14:45.082Z,3.77
2019-06-07T10:17:13.606Z,3.85
2019-06-07T10:19:42.952Z,3.83
2019-06-07T10:22:11.803Z,4.85
2019-06-07T10:24:40.585Z,3.77
2019-06-07T10:27:10.076Z,5.05
2019-06-07T10:29:38.956Z,5.22
2019-06-07T10:32:09.183Z,4.70
2019-06-07T10:34:38.385Z,5.28
2019-06-07T10:37:09.851Z,5.53
2019-06-07T10:39:48.027Z,5.72
2019-06-07T10:42:09.696Z,5.95
2019-06-07T10:44:38.772Z,5.85
2019-06-07T10:47:08.104Z,9.18
2019-06-07T10:49:37.232Z,7.75
2019-06-07T10:52:07.982Z,5.17
2019-06-07T10:54:37.361Z,4.95
2019-06-07T10:57:09.377Z,6.47
2019-06-07T10:59:36.962Z,5.83
2019-06-07T11:02:05.844Z,10.25
2019-06-07T11:04:34.695Z,9.48
2019-06-07T11:07:04.501Z,9.53
2019-06-07T11:09:34.564Z,7.70
2019-06-07T11:12:04.331Z,7.15
2019-06-07T11:14:33.202Z,7.22
2019-06-07T11:17:02.224Z,5.92
2019-06-07T11:19:31.033Z,8.13
2019-06-07T11:21:59.810Z,5.78
2019-06-07T11:24:28.533Z,5.80
2019-06-07T11:26:57.211Z,6.03
2019-06-07T11:29:25.954Z,6.45
2019-06-07T11:31:54.733Z,5.62
2019-06-07T11:34:23.476Z,5.45
2019-06-07T11:36:52.237Z,6.03
2019-06-07T11:39:21.814Z,6.00
2019-06-07T11:41:50.609Z,7.37
2019-06-07T11:44:19.487Z,6.55
2019-06-07T11:46:48.514Z,6.47
2019-06-07T11:49:21.645Z,9.23
2019-06-07T11:51:48.387Z,13.03
2019-06-07T11:54:20.333Z,6.30
2019-06-07T11:56:48.038Z,6.05
2019-06-07T11:59:17.465Z,7.33
2019-06-07T12:01:46.414Z,6.67
2019-06-07T12:04:32.440Z,14.38
2019-06-07T12:09:14.831Z,5.83
2019-06-07T12:11:43.852Z,6.00
2019-06-07T12:14:19.355Z,7.15
2019-06-07T12:16:48.280Z,6.67
2019-06-07T12:19:17.687Z,6.10
2019-06-07T12:21:47.157Z,6.58
2019-06-07T12:24:16.309Z,7.78
2019-06-07T12:26:45.150Z,6.30
2019-06-07T12:29:14.916Z,7.45
2019-06-07T12:31:44.088Z,8.58
2019-06-07T12:34:13.252Z,11.97
2019-06-07T12:36:42.418Z,7.60
2019-06-07T12:39:11.867Z,7.10
2019-06-07T12:41:40.858Z,8.67
2019-06-07T12:44:09.962Z,12.68
2019-06-07T12:47:06.603Z,8.35
2019-06-07T12:49:35.366Z,7.10
2019-06-07T12:52:04.405Z,6.95
2019-06-07T12:54:33.823Z,23.65
2019-06-07T12:57:03.837Z,5.20
2019-06-07T12:59:32.995Z,5.75
2019-06-07T13:02:02.819Z,5.37
2019-06-07T13:04:31.570Z,5.80
2019-06-07T13:07:06.034Z,5.58
2019-06-07T13:09:37.717Z,5.42
2019-06-07T13:12:10.351Z,5.20
2019-06-07T13:14:48.793Z,5.12
2019-06-07T13:17:24.329Z,5.53
2019-06-07T13:19:57.303Z,5.10
2019-06-07T13:22:28.482Z,5.85
2019-06-07T13:24:59.593Z,5.28
2019-06-07T13:29:58.095Z,4.57
2019-06-07T13:32:28.167Z,5.22
2019-06-07T13:34:57.154Z,4.78
2019-06-07T13:37:38.468Z,5.50
2019-06-07T13:40:29.389Z,5.37
2019-06-07T13:42:58.648Z,5.53
2019-06-07T13:45:28.055Z,4.87
2019-06-07T13:47:57.983Z,5.47
2019-06-07T13:50:28.274Z,5.53
2019-06-07T13:52:57.842Z,5.10
2019-06-07T13:55:28.022Z,6.05
2019-06-07T13:57:57.358Z,5.53
2019-06-07T14:00:26.789Z,5.00
2019-06-07T14:02:55.890Z,5.90
2019-06-07T14:05:27.244Z,10.78
2019-06-07T14:07:59.178Z,7.08
2019-06-07T14:10:27.949Z,5.17
2019-06-07T14:12:56.713Z,5.35
2019-06-07T14:15:26.459Z,4.75
2019-06-07T14:17:55.771Z,4.72
2019-06-07T14:20:28.961Z,4.17
2019-06-07T14:22:55.234Z,4.58
2019-06-07T14:25:25.138Z,5.33
2019-06-07T14:27:54.082Z,6.12
2019-06-07T14:30:23.937Z,4.75
2019-06-07T14:32:52.882Z,4.28
2019-06-07T14:35:22.499Z,4.45
2019-06-07T14:37:51.708Z,4.67
2019-06-07T14:40:20.897Z,4.10
2019-06-07T14:42:49.682Z,4.53
2019-06-07T14:45:19.186Z,4.67
2019-06-07T14:47:47.968Z,4.55
2019-06-07T14:50:16.954Z,4.00
2019-06-07T14:52:45.810Z,4.00
2019-06-07T14:55:35.089Z,4.30
2019-06-07T14:58:04.748Z,4.30
2019-06-07T15:00:41.731Z,4.40
2019-06-07T15:03:10.986Z,4.65
2019-06-07T15:05:40.585Z,4.00
2019-06-07T15:08:10.074Z,3.95
2019-06-07T15:10:39.337Z,3.60
2019-06-07T15:13:09.163Z,3.70
2019-06-07T15:15:38.968Z,4.30
2019-06-07T15:18:08.296Z,4.05
2019-06-07T15:20:38.402Z,4.00
2019-06-07T15:23:07.619Z,4.10
2019-06-07T15:25:37.347Z,4.58
2019-06-07T15:28:06.414Z,4.15
2019-06-07T15:30:35.745Z,5.78
2019-06-07T15:33:46.615Z,4.40
2019-06-07T15:36:44.194Z,4.30
2019-06-07T15:39:19.481Z,4.30
2019-06-07T15:41:49.251Z,3.77
2019-06-07T15:44:18.270Z,3.95
2019-06-07T15:46:47.104Z,4.10
2019-06-07T15:49:42.135Z,3.92
2019-06-07T15:52:11.186Z,3.55
2019-06-07T15:54:40.693Z,3.58
2019-06-07T15:57:09.934Z,3.87
2019-06-07T15:59:39.431Z,3.92
2019-06-07T16:02:08.359Z,3.27
2019-06-07T16:04:37.712Z,2.95
2019-06-07T16:07:06.513Z,2.98
2019-06-07T16:09:36.356Z,3.30
2019-06-07T16:12:05.298Z,3.50
2019-06-07T16:14:35.043Z,2.90
2019-06-07T16:17:03.962Z,3.22
2019-06-07T16:19:34.291Z,3.20
2019-06-07T16:22:03.347Z,6.75
2019-06-07T16:24:32.126Z,3.47
2019-06-07T16:27:00.940Z,3.42
2019-06-07T16:29:29.764Z,3.17
2019-06-07T16:31:58.515Z,3.20
2019-06-07T16:34:27.310Z,3.10
2019-06-07T16:36:56.110Z,3.22
2019-06-07T16:39:24.945Z,3.40
2019-06-07T16:41:53.988Z,3.02
2019-06-07T16:44:23.086Z,3.47
2019-06-07T16:46:51.845Z,2.98
2019-06-07T16:49:20.873Z,3.08
2019-06-07T16:51:50.005Z,3.35
2019-06-07T16:54:19.080Z,2.77
2019-06-07T16:56:51.155Z,2.83
2019-06-07T16:59:18.687Z,2.60
2019-06-07T17:01:47.509Z,3.57
2019-06-07T17:04:16.329Z,3.17
2019-06-07T17:06:46.439Z,3.25
2019-06-07T17:09:15.351Z,4.42
2019-06-07T17:11:44.358Z,3.70
2019-06-07T17:14:13.363Z,2.90
2019-06-07T17:16:43.198Z,2.90
2019-06-07T17:19:12.428Z,2.87
2019-06-07T17:21:41.288Z,3.55
2019-06-07T17:24:10.075Z,2.98
2019-06-07T17:26:39.443Z,3.22
2019-06-07T17:29:08.637Z,3.37
2019-06-07T17:31:37.434Z,2.72
2019-06-07T17:34:06.341Z,3.37
2019-06-07T17:36:35.637Z,3.10
2019-06-07T17:39:06.967Z,3.30
2019-06-07T17:41:50.643Z,3.02
2019-06-07T17:44:06.447Z,3.35
2019-06-07T17:46:35.379Z,3.00
2019-06-07T17:49:04.347Z,3.22
2019-06-07T17:51:33.184Z,3.37
2019-06-07T17:54:02.077Z,3.62
2019-06-07T17:56:30.905Z,3.85
2019-06-07T17:58:59.657Z,3.70
2019-06-07T18:01:40.690Z,3.30
2019-06-07T18:03:59.190Z,3.58
2019-06-07T18:06:29.608Z,3.77
2019-06-07T18:09:00.007Z,3.90
2019-06-07T18:14:10.123Z,3.72
2019-06-07T18:16:27.285Z,3.62
2019-06-07T18:18:56.182Z,3.85
2019-06-07T18:21:25.033Z,4.40
2019-06-07T18:23:54.759Z,5.62
2019-06-07T18:26:23.722Z,4.17
2019-06-07T18:28:52.723Z,4.95
2019-06-07T18:31:21.693Z,4.85
2019-06-07T18:33:50.905Z,4.67
2019-06-07T18:36:19.873Z,5.65
2019-06-07T18:38:49.010Z,5.10
2019-06-07T18:41:17.927Z,5.17
2019-06-07T18:43:47.121Z,5.35
2019-06-07T18:46:15.873Z,5.65
2019-06-07T18:48:44.644Z,5.80
2019-06-07T18:51:13.493Z,5.67
2019-06-07T18:53:42.275Z,6.05
2019-06-07T18:56:11.072Z,5.78
2019-06-07T18:58:40.208Z,6.40
2019-06-07T19:01:09.093Z,6.62
2019-06-07T19:03:37.958Z,6.10
2019-06-07T19:06:06.910Z,7.60
2019-06-07T19:08:36.151Z,7.10
2019-06-07T19:11:04.982Z,7.28
2019-06-07T19:13:33.827Z,7.60
2019-06-07T19:16:02.733Z,7.30
2019-06-07T19:18:31.493Z,8.18
2019-06-07T19:21:00.738Z,8.48
2019-06-07T19:23:30.083Z,8.38
2019-06-07T19:26:00.651Z,8.60
2019-06-07T19:28:29.990Z,8.48
2019-06-07T19:30:59.281Z,8.55
2019-06-07T19:33:28.562Z,8.53
2019-06-07T19:35:57.638Z,8.60
2019-06-07T19:38:26.535Z,8.63
2019-06-07T19:40:55.901Z,8.70
2019-06-07T19:43:24.850Z,9.20
2019-06-07T19:45:54.079Z,8.88
2019-06-07T19:48:23.145Z,9.40
2019-06-07T19:50:52.858Z,9.25
2019-06-07T19:53:22.133Z,8.93
2019-06-07T19:55:51.483Z,9.33
2019-06-07T19:58:20.557Z,9.78
2019-06-07T20:00:49.594Z,9.08
2019-06-07T20:03:18.653Z,8.95
2019-06-07T20:05:47.498Z,9.80
2019-06-07T20:08:16.829Z,9.70
2019-06-07T20:10:45.623Z,9.80
2019-06-07T20:13:14.405Z,9.95
2019-06-07T20:15:43.531Z,10.18
2019-06-07T20:18:12.577Z,9.75
2019-06-07T20:20:41.670Z,9.75
2019-06-07T20:23:10.530Z,8.98
2019-06-07T20:25:39.374Z,9.40
2019-06-07T20:28:09.348Z,10.15
